Leominster, MA (01453)

6:51 AM EST on December 25, 2014 (GMT -0500)
Upper Nelson St | Change Station
CLOSE
Current Station
Personal Weather Station
Location: Leominster, MA
Elevation: 540 ft
Nearby Weather Stations

Elev 540 ft 42.54 °N, 71.77 °W | Updated 8 seconds ago

Light Rain
Light Rain
57.0 °F
Feels Like 57.0 °F
N
6.0
Wind Variable Wind from SW
Gusts 12.0 mph

Today
High -- | Low -- °F
--% Chance of Precip.
Yesterday
High -- | Low -- °F
Precip. -- in
7:15 AM 4:19 PM
Waxing Crescent, 15% visible
Pressure 29.46 in
Visibility 10.0 miles
Clouds Few 2400 ft
Few 6000 ft
Overcast 10000 ft
Dew Point 56 °F
Humidity 98%
Rainfall 0.15 in
Snow Depth Not available.
UV 0 out of 12
Pollen .10 out of 12
Air Quality Not available.
Flu Activity Not available.
METAR KFIT 251052Z AUTO VRB06G15KT 10SM -RA FEW024 FEW060 OVC100 14/12 A2946 RMK AO2 RAB21 SLP976 P0001 T01390122

More Conditions Fewer Conditions

Pressure 29.46 in
Visibility 10.0 miles
Clouds Few 2400 ft
Few 6000 ft
Overcast 10000 ft
Dew Point 56 °F
Humidity 98%
Rainfall 0.15 in
Snow Depth Not available.
UV 0 out of 12
Pollen .10 out of 12
Air Quality Not available.
Flu Activity Not available.
METAR KFIT 251052Z AUTO VRB06G15KT 10SM -RA FEW024 FEW060 OVC100 14/12 A2946 RMK AO2 RAB21 SLP976 P0001 T01390122

More Conditions Fewer Conditions

10-Day Weather Forecast

Almanac

Astronomy

Dec. 25, 2014 Rise Set
Actual Time
Civil Twilight
Nautical Twilight
Astronomical Twilight
Moon
Length of Visible Light
Length of Day
Tomorrow will be .
, % of the Moon is Illuminated

Today's Extremes

State Highs State Lows

Community

WunderPhotos

Upload Photos

1,780,264 photos uploaded!

WunderBlogs® & News

Nearby

Air Quality

  Air Quality AQ Index Pollutant
Not available.

Snow Depth

Station Depth Elevation

Earthquake Activity

City Distance Mag. Time & Date
Minimum magnitude displayed is 2.5.

Coastal Water Temperatures

Place Temperature

Nearby Weather Stations